Time;durP1;ratioP1;P1;durP2;ratioP2;P2;SDS_P1;SDS_P2;PMS_P1;PMS_P2;Temp;Humidity;BMP_temperature;BMP_pressure;BME280_temperature;BME280_humidity;BME280_pressure;Samples;Min_cycle;Max_cycle;Signal;HPM_P1;HPM_P2
2022/08/02 00:02:21;;;;;;;1.88;0.95;;;;;;;19.00;67.02;96452.47;6214315;23;20024;-76
2022/08/02 00:04:47;;;;;;;1.13;0.88;;;;;;;18.98;67.47;96460.31;6214650;23;20013;-75
2022/08/02 00:07:14;;;;;;;3.17;0.93;;;;;;;18.75;68.44;96458.38;6213782;23;20032;-76
2022/08/02 00:09:41;;;;;;;2.47;1.05;;;;;;;18.66;69.30;96465.28;6215069;23;20032;-77
2022/08/02 00:12:08;;;;;;;4.20;1.00;;;;;;;18.59;69.84;96456.88;6214264;23;20048;-77
2022/08/02 00:14:35;;;;;;;1.92;1.10;;;;;;;18.60;70.18;96464.00;6214721;23;20484;-76
2022/08/02 00:17:01;;;;;;;2.45;0.90;;;;;;;18.47;71.08;96466.13;6214067;23;20506;-77
2022/08/02 00:19:29;;;;;;;2.33;1.20;;;;;;;18.28;72.16;96466.97;6214833;23;20357;-78
2022/08/02 00:21:56;;;;;;;1.77;1.00;;;;;;;18.10;73.23;96477.63;6212942;23;20039;-77
2022/08/02 00:24:22;;;;;;;2.00;1.00;;;;;;;17.97;74.14;96477.00;6213494;23;20023;-78
2022/08/02 00:26:48;;;;;;;3.00;0.80;;;;;;;18.10;73.49;96474.06;6214548;23;20016;-77
2022/08/02 00:29:15;;;;;;;2.40;1.05;;;;;;;18.05;73.57;96474.38;6213508;23;20023;-78
2022/08/02 00:31:41;;;;;;;3.28;0.80;;;;;;;18.19;73.17;96492.00;6214167;23;20017;-78
2022/08/02 00:34:08;;;;;;;1.33;1.00;;;;;;;18.38;73.03;96504.19;6212994;23;20012;-77
2022/08/02 00:36:36;;;;;;;1.88;1.02;;;;;;;18.41;73.22;96498.72;6214033;23;20036;-78
2022/08/02 00:39:02;;;;;;;1.27;0.80;;;;;;;18.48;72.64;96498.84;6213212;23;20023;-77
2022/08/02 00:41:29;;;;;;;1.00;0.90;;;;;;;18.62;72.11;96505.78;6212775;23;20020;-77
2022/08/02 00:43:57;;;;;;;1.38;1.02;;;;;;;18.56;71.60;96508.03;6213357;23;20024;-79
2022/08/02 00:46:23;;;;;;;2.25;1.00;;;;;;;18.62;71.84;96508.53;6212925;23;20456;-77
2022/08/02 00:48:50;;;;;;;2.28;1.10;;;;;;;18.59;71.96;96504.56;6213599;23;20023;-77
2022/08/02 00:51:17;;;;;;;1.42;1.00;;;;;;;18.52;72.19;96509.94;6212646;23;20036;-76
2022/08/02 00:53:45;;;;;;;1.92;0.93;;;;;;;18.38;73.03;96502.22;6213184;23;20027;-76
2022/08/02 00:56:11;;;;;;;1.17;0.90;;;;;;;18.47;73.03;96505.50;6213074;23;20028;-77
2022/08/02 00:58:38;;;;;;;2.15;1.00;;;;;;;18.55;72.98;96502.91;6213242;23;20024;-78
2022/08/02 01:01:04;;;;;;;2.92;1.25;;;;;;;18.58;72.89;96499.41;6212742;23;20020;-76
2022/08/02 01:03:31;;;;;;;0.98;0.80;;;;;;;18.55;72.78;96502.91;6213648;23;20404;-76
2022/08/02 01:05:57;;;;;;;1.77;1.00;;;;;;;18.50;73.82;96496.53;6213524;23;20043;-77
2022/08/02 01:08:24;;;;;;;1.27;0.98;;;;;;;18.59;73.47;96512.06;6212442;23;20021;-77
2022/08/02 01:10:52;;;;;;;2.40;1.30;;;;;;;18.42;73.58;96505.00;6213662;23;20040;-77
2022/08/02 01:13:18;;;;;;;2.85;1.00;;;;;;;18.42;73.79;96505.81;6212469;23;20016;-77
2022/08/02 01:15:51;;;;;;;1.60;1.10;;;;;;;18.49;73.72;96505.97;6212898;23;20021;-77
2022/08/02 01:18:23;;;;;;;;;;;;;;;18.29;74.58;96509.91;6213140;23;20024;-78
2022/08/02 01:21:16;;;;;;;1.48;1.00;;;;;;;18.19;74.74;96499.47;6212977;23;19916;-77
2022/08/02 01:24:00;;;;;;;2.50;0.93;;;;;;;17.99;76.30;96499.47;6213182;23;20013;-77
2022/08/02 01:26:39;;;;;;;2.30;1.10;;;;;;;18.17;75.98;96483.31;6212746;23;20437;-77
2022/08/02 01:29:13;;;;;;;2.55;1.05;;;;;;;18.08;75.62;96477.22;6212493;23;20388;-76
2022/08/02 01:31:47;;;;;;;1.33;0.90;;;;;;;18.03;76.52;96471.19;6212857;23;20024;-76
2022/08/02 01:34:18;;;;;;;1.88;1.23;;;;;;;18.15;75.75;96471.03;6212057;23;20021;-76
2022/08/02 01:36:49;;;;;;;2.47;1.15;;;;;;;17.99;76.56;96471.91;6212385;23;20481;-76
2022/08/02 01:39:21;;;;;;;3.38;1.23;;;;;;;18.03;76.66;96487.72;6212237;23;20027;-77
2022/08/02 01:41:49;;;;;;;2.55;1.50;;;;;;;17.67;79.23;96498.75;6212698;23;20016;-76
2022/08/02 01:44:18;;;;;;;2.53;1.08;;;;;;;17.68;79.37;96488.53;6212309;23;20017;-77
2022/08/02 01:46:46;;;;;;;2.03;1.40;;;;;;;17.94;78.17;96474.94;6212767;23;20020;-77
2022/08/02 01:49:17;;;;;;;2.13;1.10;;;;;;;18.00;77.47;96472.69;6211711;23;20044;-78
2022/08/02 01:54:33;;;;;;;1.85;1.10;;;;;;;18.06;77.66;96478.72;6212270;23;20364;-77
2022/08/02 01:57:02;;;;;;;1.63;1.02;;;;;;;18.10;77.41;96472.13;6212576;23;20025;-78
2022/08/02 01:59:32;;;;;;;2.53;1.17;;;;;;;18.09;77.28;96466.97;6212318;23;20017;-78
2022/08/02 02:02:00;;;;;;;1.80;1.10;;;;;;;17.93;77.80;96462.34;6212410;23;20044;-76
2022/08/02 02:04:31;;;;;;;1.73;1.10;;;;;;;17.91;78.04;96463.88;6212127;23;20017;-78
2022/08/02 02:06:59;;;;;;;1.88;1.02;;;;;;;17.90;78.23;96470.53;6212589;23;20017;-78
2022/08/02 02:09:30;;;;;;;1.95;1.10;;;;;;;17.91;78.38;96475.69;6211950;23;20024;-79
2022/08/02 02:11:59;;;;;;;3.05;1.40;;;;;;;17.91;78.72;96466.63;6212704;23;20475;-77
2022/08/02 02:14:28;;;;;;;4.15;1.15;;;;;;;17.90;78.20;96471.31;6211598;23;20024;-77
2022/08/02 02:16:58;;;;;;;2.13;1.20;;;;;;;17.79;78.54;96478.56;6212111;23;20017;-77
2022/08/02 02:19:25;;;;;;;4.82;1.50;;;;;;;17.75;78.84;96474.97;6211903;23;20078;-78
2022/08/02 02:21:52;;;;;;;2.92;1.15;;;;;;;17.66;79.27;96490.88;6212020;23;20020;-76
2022/08/02 02:24:19;;;;;;;2.03;1.40;;;;;;;17.65;79.63;96483.78;6211670;23;20027;-78
2022/08/02 02:26:46;;;;;;;2.25;1.30;;;;;;;17.66;79.80;96485.34;6212234;23;20024;-77
2022/08/02 02:29:14;;;;;;;2.08;1.30;;;;;;;17.76;79.63;96489.53;6211602;23;20024;-77
2022/08/02 02:31:43;;;;;;;1.83;1.20;;;;;;;17.64;79.81;96490.41;6212376;23;20025;-77
2022/08/02 02:34:15;;;;;;;3.70;1.30;;;;;;;17.60;79.92;96490.34;6211613;23;20023;-77
2022/08/02 02:36:47;;;;;;;4.32;1.38;;;;;;;17.67;79.77;96481.44;6212112;23;20012;-77
2022/08/02 02:39:15;;;;;;;1.48;1.10;;;;;;;17.61;80.10;96480.13;6211947;23;20396;-78
2022/08/02 02:41:44;;;;;;;2.08;1.35;;;;;;;17.52;80.46;96479.53;6211918;23;20017;-77
2022/08/02 02:44:16;;;;;;;2.85;1.40;;;;;;;17.47;80.68;96473.16;6211573;23;20025;-76
2022/08/02 02:46:44;;;;;;;2.00;1.40;;;;;;;17.54;80.85;96472.53;6211906;23;20071;-77
2022/08/02 02:49:13;;;;;;;2.08;1.40;;;;;;;17.65;81.05;96483.78;6211469;23;20025;-76
2022/08/02 02:51:40;;;;;;;3.75;1.63;;;;;;;17.73;80.39;96480.03;6211794;23;20024;-76
2022/08/02 02:54:09;;;;;;;2.30;1.27;;;;;;;17.75;80.54;96483.22;6211591;23;20027;-76
2022/08/02 02:56:36;;;;;;;2.85;1.30;;;;;;;17.75;80.47;96488.75;6212173;23;20013;-76
2022/08/02 02:59:03;;;;;;;2.10;1.20;;;;;;;17.77;80.23;96486.41;6211536;23;20021;-77
2022/08/02 03:01:30;;;;;;;3.70;1.27;;;;;;;17.88;80.23;96490.19;6212411;23;20032;-78
2022/08/02 03:04:00;;;;;;;2.13;1.42;;;;;;;17.91;79.89;96488.69;6212053;23;20021;-77
2022/08/02 03:06:28;;;;;;;2.63;1.45;;;;;;;17.93;79.30;96484.38;6213549;23;20021;-76
2022/08/02 03:08:54;;;;;;;1.58;1.20;;;;;;;17.96;78.92;96489.19;6215984;23;20019;-77
2022/08/02 03:11:21;;;;;;;1.70;1.20;;;;;;;17.97;79.44;96490.78;6216123;23;20021;-76
2022/08/02 03:13:48;;;;;;;2.40;1.17;;;;;;;17.96;79.23;96494.69;6216848;23;20020;-75
2022/08/02 03:16:14;;;;;;;1.70;1.17;;;;;;;17.97;78.79;96496.28;6215702;23;20032;-77
2022/08/02 03:18:43;;;;;;;2.42;1.10;;;;;;;17.99;78.95;96491.19;6216997;23;20638;-76
2022/08/02 03:21:11;;;;;;;1.63;1.33;;;;;;;18.04;78.88;96486.56;6215933;23;20028;-77
2022/08/02 03:23:41;;;;;;;2.50;1.20;;;;;;;18.04;79.09;96492.06;6216420;23;20096;-77
2022/08/02 03:26:07;;;;;;;1.67;1.20;;;;;;;18.08;79.56;96484.69;6216127;23;20013;-76
2022/08/02 03:28:34;;;;;;;1.55;1.10;;;;;;;18.13;79.36;96487.16;6216524;23;20020;-77
2022/08/02 03:31:01;;;;;;;2.95;1.17;;;;;;;18.17;78.82;96499.03;6215714;23;20348;-78
2022/08/02 03:33:28;;;;;;;1.70;1.13;;;;;;;18.13;79.13;96501.72;6215814;23;20341;-77
2022/08/02 03:35:58;;;;;;;3.13;1.42;;;;;;;18.15;79.45;96501.34;6215431;23;20013;-78
2022/08/02 03:38:26;;;;;;;2.28;1.40;;;;;;;18.16;79.25;96505.69;6210496;23;20023;-77
2022/08/02 03:40:54;;;;;;;1.95;1.30;;;;;;;18.16;79.38;96500.19;6215065;23;20027;-77
2022/08/02 03:43:21;;;;;;;1.73;1.40;;;;;;;18.16;78.96;96503.72;6214530;23;20020;-77
2022/08/02 03:45:49;;;;;;;3.00;1.60;;;;;;;18.11;79.40;96512.28;6215180;23;20028;-77
2022/08/02 03:48:16;;;;;;;3.47;1.50;;;;;;;18.17;80.14;96507.31;6214081;23;20024;-77
2022/08/02 03:50:46;;;;;;;2.67;1.45;;;;;;;18.17;80.75;96501.81;6214460;23;20495;-79
2022/08/02 03:53:13;;;;;;;2.03;1.40;;;;;;;18.19;80.83;96507.72;6213614;23;20031;-78
2022/08/02 03:55:40;;;;;;;2.50;1.63;;;;;;;18.21;80.02;96508.16;6214283;23;20017;-77
2022/08/02 03:58:08;;;;;;;3.30;1.50;;;;;;;18.19;79.08;96507.72;6213662;23;20024;-77
2022/08/02 04:00:35;;;;;;;3.65;1.00;;;;;;;18.13;78.95;96498.97;6214413;23;20020;-77
2022/08/02 04:03:01;;;;;;;1.83;1.30;;;;;;;18.16;79.57;96511.19;6214439;23;20082;-74
2022/08/02 04:05:28;;;;;;;3.80;1.55;;;;;;;18.15;80.27;96517.88;6214179;23;20017;-77
2022/08/02 04:07:56;;;;;;;1.92;1.40;;;;;;;18.17;80.39;96526.59;6214297;23;20023;-76
2022/08/02 04:10:22;;;;;;;3.45;1.40;;;;;;;18.20;80.28;96525.88;6213618;23;20100;-78
2022/08/02 04:12:49;;;;;;;1.92;1.50;;;;;;;18.19;80.00;96521.50;6213996;23;20453;-77
2022/08/02 04:15:18;;;;;;;3.50;1.40;;;;;;;18.24;80.36;96523.97;6213113;23;20023;-77
2022/08/02 04:17:50;;;;;;;2.00;1.42;;;;;;;18.21;80.39;96527.44;6213859;23;20630;-77
2022/08/02 04:20:20;;;;;;;1.35;1.23;;;;;;;18.22;79.94;96529.06;6212917;23;20352;-77
2022/08/02 04:22:51;;;;;;;4.38;1.60;;;;;;;18.23;80.01;96530.66;6213709;23;20013;-77
2022/08/02 04:25:19;;;;;;;4.45;1.80;;;;;;;18.21;80.32;96538.47;6213136;23;20016;-78
2022/08/02 04:27:47;;;;;;;2.15;1.55;;;;;;;18.19;80.59;96529.78;6213057;23;20449;-77
2022/08/02 04:30:15;;;;;;;2.58;1.50;;;;;;;18.25;80.95;96533.84;6212819;23;20017;-77
2022/08/02 04:32:44;;;;;;;4.82;1.83;;;;;;;18.33;80.31;96532.84;6213178;23;20491;-77
2022/08/02 04:35:11;;;;;;;3.88;1.77;;;;;;;18.35;80.06;96532.47;6212826;23;20024;-79
2022/08/02 04:37:38;;;;;;;4.93;4.00;;;;;;;18.37;79.94;96536.44;6213223;23;20029;-76
2022/08/02 04:40:09;;;;;;;3.15;2.30;;;;;;;18.29;79.98;96545.75;6212117;23;20020;-76
2022/08/02 04:42:35;;;;;;;2.50;1.58;;;;;;;18.35;79.27;96543.50;6211817;23;20020;-76
2022/08/02 04:45:02;;;;;;;2.80;1.70;;;;;;;18.34;78.77;96553.72;6211823;23;20017;-75
2022/08/02 04:47:28;;;;;;;2.45;1.70;;;;;;;18.33;79.16;96552.13;6213219;23;20082;-76
2022/08/02 04:49:56;;;;;;;4.03;1.80;;;;;;;18.36;79.20;96551.38;6213383;23;20016;-77
2022/08/02 04:52:39;;;;;;;2.80;1.90;;;;;;;18.35;78.96;96555.31;6214249;23;20017;-86
2022/08/02 04:55:06;;;;;;;3.17;1.90;;;;;;;18.35;79.40;96555.31;6242176;22;20007;-73
2022/08/02 05:00:19;;;;;;;2.05;1.60;;;;;;;18.24;79.12;96549.59;6233654;22;20016;-78
2022/08/02 05:02:46;;;;;;;4.53;1.70;;;;;;;18.29;79.00;96556.75;6244797;22;20005;-73
2022/08/02 05:05:14;;;;;;;3.20;1.75;;;;;;;18.30;79.14;96566.63;6218448;22;20005;-73
2022/08/02 05:07:40;;;;;;;2.85;1.63;;;;;;;18.34;79.81;96564.75;6219107;23;20004;-80
2022/08/02 05:10:07;;;;;;;4.03;1.70;;;;;;;18.37;80.13;96565.97;6243448;22;20007;-74
2022/08/02 06:23:33;;;;;;;3.55;1.80;;;;;;;18.68;80.08;96576.06;6214584;22;20025;-74
2022/08/02 06:26:00;;;;;;;4.45;1.70;;;;;;;18.68;79.75;96573.28;6243353;22;20024;-73
2022/08/02 06:28:27;;;;;;;3.60;1.92;;;;;;;18.79;80.39;96568.78;6216659;22;20012;-73
2022/08/02 06:30:56;;;;;;;4.80;1.70;;;;;;;18.74;79.10;96566.31;6217274;22;20040;-75
2022/08/02 06:33:24;;;;;;;4.40;1.98;;;;;;;18.80;78.83;96570.41;6242216;22;20009;-73
2022/08/02 06:35:57;;;;;;;3.38;1.63;;;;;;;18.77;78.91;96568.34;6242915;22;20023;-76
2022/08/02 06:38:27;;;;;;;3.80;1.70;;;;;;;18.65;78.92;96563.78;6240370;22;20024;-78
2022/08/02 06:41:01;;;;;;;5.93;1.92;;;;;;;18.75;78.87;96562.41;6216993;22;20052;-78
2022/08/02 06:43:34;;;;;;;2.97;1.40;;;;;;;18.74;78.05;96555.28;6217673;22;20000;-78
2022/08/02 06:46:02;;;;;;;3.25;1.67;;;;;;;18.83;78.40;96561.38;6241586;22;20060;-73
2022/08/02 06:48:30;;;;;;;6.50;1.98;;;;;;;18.87;77.84;96556.72;6202741;22;20016;-76
2022/08/02 06:50:57;;;;;;;5.13;1.67;;;;;;;18.93;78.16;96557.22;6242708;22;20005;-81
2022/08/02 06:53:24;;;;;;;2.47;1.67;;;;;;;19.02;78.31;96564.09;6216310;22;20040;-76
2022/08/02 07:31:08;;;;;;;3.00;1.83;;;;;;;20.80;67.64;96552.00;6238189;22;20027;-78
2022/08/02 07:33:35;;;;;;;3.25;1.45;;;;;;;20.73;67.89;96556.69;6216513;23;20027;-76
2022/08/02 07:36:02;;;;;;;2.75;1.45;;;;;;;20.88;68.54;96550.13;6241972;22;20023;-76
2022/08/02 07:38:29;;;;;;;1.70;1.30;;;;;;;21.04;67.43;96550.66;6242373;22;20064;-79
2022/08/02 07:40:56;;;;;;;3.63;1.60;;;;;;;21.03;68.76;96554.59;6242522;22;20004;-78
2022/08/02 07:43:23;;;;;;;2.38;1.23;;;;;;;21.16;68.24;96562.63;6241679;22;20036;-82
2022/08/02 07:53:36;;;;;;;1.77;1.30;;;;;;;21.35;65.03;96557.69;6240276;22;20015;-76
2022/08/02 07:56:03;;;;;;;4.10;1.70;;;;;;;21.31;67.13;96558.84;6239914;22;20012;-77
2022/08/02 07:58:30;;;;;;;3.15;1.58;;;;;;;21.40;67.59;96556.53;6242066;22;20060;-88
2022/08/02 08:00:57;;;;;;;2.33;1.52;;;;;;;22.01;65.44;96552.19;6242723;22;20020;-73
2022/08/02 08:03:23;;;;;;;2.38;1.30;;;;;;;22.78;61.81;96554.94;6242226;22;20025;-83
2022/08/02 08:05:53;;;;;;;4.57;1.50;;;;;;;23.13;58.36;96555.03;6244206;22;20016;-79
2022/08/02 08:08:19;;;;;;;4.30;1.73;;;;;;;23.37;59.67;96558.22;6243387;22;20868;-74
2022/08/02 08:10:48;;;;;;;5.95;1.83;;;;;;;23.81;58.01;96555.03;6244275;22;20048;-75
2022/08/02 08:13:15;;;;;;;3.80;1.55;;;;;;;23.97;55.25;96539.91;6217602;22;20017;-76
2022/08/02 08:15:42;;;;;;;2.00;1.33;;;;;;;24.21;56.67;96545.38;6219181;22;20016;-80
2022/08/02 08:18:08;;;;;;;3.13;1.52;;;;;;;24.69;56.69;96539.28;6217476;22;20044;-76
2022/08/02 08:23:10;;;;;;;2.90;1.83;;;;;;;25.10;54.47;96540.63;6239562;22;19948;-84
2022/08/02 08:25:37;;;;;;;2.05;1.40;;;;;;;24.70;52.20;96538.06;6243557;22;20017;-80
2022/08/02 08:28:05;;;;;;;2.28;1.30;;;;;;;24.47;55.57;96540.56;6242648;22;20028;-77
2022/08/02 08:30:32;;;;;;;5.25;1.25;;;;;;;24.80;54.95;96544.00;6244213;22;20016;-75
2022/08/02 08:32:58;;;;;;;3.55;1.60;;;;;;;24.85;53.46;96544.34;6243914;22;20021;-77
2022/08/02 08:43:47;;;;;;;2.63;1.42;;;;;;;24.54;56.56;96537.75;6248267;22;20008;-74
2022/08/02 08:46:21;;;;;;;4.22;1.70;;;;;;;24.50;53.67;96538.97;6272815;22;20063;-78
2022/08/02 08:48:49;;;;;;;2.00;1.23;;;;;;;24.43;54.05;96539.78;6223044;22;20023;-77
2022/08/02 08:51:21;;;;;;;6.20;1.45;;;;;;;24.41;58.01;96536.59;6273424;22;20024;-75
2022/08/02 08:53:52;;;;;;;2.53;1.23;;;;;;;24.38;56.41;96537.41;6274378;22;20030;-75
2022/08/02 09:04:20;;;;;;;2.53;1.60;;;;;;;24.29;53.06;96540.59;6266688;22;20008;-87
2022/08/02 09:06:47;;;;;;;1.75;1.20;;;;;;;24.48;53.70;96542.13;6274057;22;20024;-81
2022/08/02 09:09:14;;;;;;;4.40;1.92;;;;;;;24.68;56.47;96529.31;6273027;22;20015;-80
2022/08/02 09:11:40;;;;;;;3.17;1.50;;;;;;;24.79;53.29;96534.03;6272071;22;19996;-79
2022/08/02 09:14:07;;;;;;;3.13;1.25;;;;;;;25.11;53.51;96534.66;6272421;22;20004;-78
2022/08/02 09:16:35;;;;;;;2.38;1.35;;;;;;;25.18;50.57;96531.03;6248450;22;20048;-82
2022/08/02 09:21:41;;;;;;;3.47;1.52;;;;;;;24.73;52.11;96542.03;6267292;22;20008;-80
2022/08/02 09:24:17;;;;;;;2.28;1.40;;;;;;;24.77;53.30;96530.88;6247262;22;20051;-75
2022/08/02 09:26:44;;;;;;;5.95;1.50;;;;;;;24.61;52.97;96529.34;6258412;22;20012;-80
2022/08/02 09:29:11;;;;;;;4.38;1.60;;;;;;;24.97;54.93;96545.88;6247358;22;20027;-83
2022/08/02 09:31:37;;;;;;;8.18;1.40;;;;;;;25.01;51.57;96541.06;6273745;22;20000;-81
2022/08/02 09:34:04;;;;;;;2.13;1.67;;;;;;;24.97;51.97;96548.66;6272551;22;20072;-77
2022/08/02 09:36:38;;;;;;;1.98;1.30;;;;;;;25.10;52.18;96543.41;6248026;22;20052;-84
2022/08/02 09:39:09;;;;;;;1.98;1.35;;;;;;;24.82;51.91;96553.50;6221762;22;20000;-83
2022/08/02 09:41:39;;;;;;;1.83;1.42;;;;;;;24.69;52.32;96552.38;6274094;22;20004;-76
2022/08/02 09:44:08;;;;;;;2.28;1.48;;;;;;;24.97;51.81;96545.88;6272532;22;19996;-85
2022/08/02 09:46:37;;;;;;;1.25;1.15;;;;;;;25.13;51.00;96554.53;6247755;22;20030;-81
2022/08/02 09:49:06;;;;;;;1.63;1.30;;;;;;;25.18;52.37;96545.75;6272970;22;20007;-78
2022/08/02 09:51:35;;;;;;;1.55;1.15;;;;;;;25.43;52.73;96542.00;6272850;22;20010;-87
2022/08/02 09:54:04;;;;;;;2.50;1.45;;;;;;;25.72;50.41;96546.09;6246765;22;20017;-78
2022/08/02 09:56:44;;;;;;;2.63;1.10;;;;;;;25.43;49.67;96544.78;6246700;23;20023;-88
2022/08/02 09:59:11;;;;;;;4.00;1.67;;;;;;;25.12;49.79;96541.81;6245390;22;20004;-79
2022/08/02 10:01:39;;;;;;;3.78;1.65;;;;;;;25.10;52.03;96549.78;6273617;22;20031;-75
2022/08/02 10:04:08;;;;;;;2.25;1.33;;;;;;;25.19;50.69;96541.75;6272633;22;20011;-76
2022/08/02 10:06:35;;;;;;;3.38;1.20;;;;;;;25.19;53.60;96547.34;6273636;22;20007;-79
2022/08/02 10:09:02;;;;;;;4.90;1.30;;;;;;;25.46;52.45;96532.78;6274010;22;20052;-77
2022/08/02 10:11:28;;;;;;;7.78;1.80;;;;;;;25.55;51.88;96535.91;6248614;22;20015;-81
2022/08/02 10:13:56;;;;;;;2.75;1.17;;;;;;;25.75;52.32;96534.16;6274178;22;20059;-78
2022/08/02 10:16:24;;;;;;;1.98;1.20;;;;;;;25.94;50.14;96535.53;6273426;22;20016;-88
2022/08/02 10:24:40;;;;;;;2.80;1.25;;;;;;;26.10;51.28;96535.00;6236600;22;20456;-93
2022/08/02 10:27:07;;;;;;;2.13;1.60;;;;;;;26.14;49.12;96530.16;6244527;23;20067;-96
2022/08/02 10:29:40;;;;;;;1.48;1.20;;;;;;;26.02;49.59;96531.47;6245137;23;20008;-96
2022/08/02 10:32:10;;;;;;;2.00;1.20;;;;;;;25.79;51.11;96530.53;6244428;23;20111;-94
2022/08/02 10:34:43;;;;;;;2.90;1.63;;;;;;;25.61;52.29;96534.25;6244377;23;20347;-94
2022/08/02 10:37:11;;;;;;;2.55;1.13;;;;;;;25.39;48.97;96530.06;6247063;23;20024;-94
2022/08/02 10:39:39;;;;;;;3.72;1.45;;;;;;;25.60;49.51;96526.31;6248066;23;20391;-93
2022/08/02 10:42:07;;;;;;;1.63;1.02;;;;;;;25.65;52.83;96523.88;6248501;23;20494;-94
2022/08/02 10:44:36;;;;;;;3.20;1.30;;;;;;;25.85;49.58;96520.53;6249242;23;20316;-91
2022/08/02 10:51:04;;;;;;;1.77;1.15;;;;;;;26.18;50.71;96516.97;6248999;22;20023;-94
2022/08/02 10:53:37;;;;;;;1.50;1.23;;;;;;;26.10;47.36;96511.84;6241914;23;20015;-96
2022/08/02 10:56:05;;;;;;;2.45;1.40;;;;;;;26.02;48.08;96509.16;6245563;23;20015;-94
2022/08/02 10:58:34;;;;;;;2.38;1.33;;;;;;;26.09;47.21;96513.06;6245743;23;20070;-94
2022/08/02 11:01:27;;;;;;;1.88;1.25;;;;;;;26.07;48.51;96507.91;6245952;23;20008;-94
2022/08/02 11:03:59;;;;;;;2.63;1.05;;;;;;;26.13;48.11;96508.25;6245917;23;20129;-94
2022/08/02 11:06:26;;;;;;;5.32;1.33;;;;;;;26.08;48.66;96512.28;6242954;23;20020;-93
2022/08/02 11:09:27;;;;;;;1.88;1.17;;;;;;;25.67;48.01;96510.28;6247432;23;20013;-94
2022/08/02 11:12:02;;;;;;;2.05;1.00;;;;;;;25.58;48.98;96515.56;6259588;23;20020;-94
2022/08/02 11:14:30;;;;;;;2.10;1.45;;;;;;;25.47;48.25;96506.50;6262604;23;20020;-94
2022/08/02 11:20:21;;;;;;;5.07;1.30;;;;;;;25.68;48.23;96497.13;6246482;22;20031;-92
2022/08/02 11:22:53;;;;;;;2.00;1.45;;;;;;;25.95;49.86;96486.94;6219823;23;20020;-92
2022/08/02 11:25:36;;;;;;;2.95;1.30;;;;;;;26.17;48.88;96481.09;6245327;23;20034;-93
2022/08/02 11:28:12;;;;;;;2.15;1.50;;;;;;;26.35;48.67;96475.28;6245545;23;20016;-94
2022/08/02 11:30:41;;;;;;;4.85;1.50;;;;;;;26.36;46.92;96476.84;6249293;23;20020;-92
2022/08/02 11:33:12;;;;;;;3.28;1.00;;;;;;;26.41;46.72;96473.59;6238070;23;20020;-94
2022/08/02 11:35:40;;;;;;;2.00;1.15;;;;;;;26.39;45.33;96459.28;6244557;23;20466;-96
2022/08/02 11:38:15;;;;;;;2.38;1.25;;;;;;;26.42;44.03;96469.66;6218503;23;20087;-95
2022/08/02 11:40:42;;;;;;;2.03;1.40;;;;;;;26.58;47.38;96467.03;6246680;23;20034;-95
2022/08/02 11:43:26;;;;;;;2.63;1.30;;;;;;;26.65;45.07;96464.13;6246433;23;20027;-95
2022/08/02 11:45:55;;;;;;;1.85;1.30;;;;;;;26.63;45.80;96469.34;6245904;23;20016;-91
2022/08/02 11:48:39;;;;;;;1.80;1.30;;;;;;;26.43;42.79;96462.84;6242730;23;20362;-95
2022/08/02 11:51:08;;;;;;;1.27;1.00;;;;;;;26.55;42.48;96462.28;6246567;23;20008;-96
2022/08/02 11:53:42;;;;;;;3.15;1.25;;;;;;;26.59;42.20;96459.44;6247045;23;20016;-96
2022/08/02 11:56:09;;;;;;;4.90;1.38;;;;;;;26.66;45.89;96459.34;6246493;23;20462;-96
2022/08/02 11:58:39;;;;;;;2.70;1.17;;;;;;;26.70;42.92;96462.88;6246879;23;20152;-96
2022/08/02 12:01:07;;;;;;;4.47;1.88;;;;;;;26.73;44.93;96462.03;6246548;23;20012;-95
2022/08/02 12:03:35;;;;;;;1.73;1.00;;;;;;;26.90;42.04;96472.16;6247037;23;20012;-96
2022/08/02 12:06:04;;;;;;;1.63;0.93;;;;;;;26.62;41.70;96467.75;6246428;23;20012;-96
2022/08/02 12:08:31;;;;;;;3.28;1.40;;;;;;;26.79;42.72;96472.31;6246794;23;20022;-96
2022/08/02 12:11:01;;;;;;;3.25;1.35;;;;;;;26.53;40.19;96464.72;6246164;23;20016;-93
2022/08/02 12:13:31;;;;;;;3.08;0.80;;;;;;;26.84;45.27;96476.63;6247555;23;20027;-95
2022/08/02 12:19:18;;;;;;;3.13;1.10;;;;;;;26.96;40.63;96470.44;6250348;23;20023;-96
2022/08/02 12:21:34;;;;;;;3.53;1.10;;;;;;;27.06;43.52;96482.69;6267021;23;20019;-92
2022/08/02 12:24:01;;;;;;;1.42;0.93;;;;;;;27.21;41.76;96478.47;6262756;23;20023;-96
2022/08/02 12:26:28;;;;;;;1.38;0.80;;;;;;;27.05;42.75;96464.34;6247782;23;20084;-96
2022/08/02 12:28:56;;;;;;;1.52;1.10;;;;;;;27.17;42.30;96472.16;6247931;23;20023;-96
2022/08/02 12:31:39;;;;;;;2.63;1.23;;;;;;;27.27;44.63;96468.38;6247858;23;20486;-96
2022/08/02 12:34:16;;;;;;;6.82;1.88;;;;;;;27.12;43.11;96460.66;6248293;23;20012;-95
2022/08/02 12:39:40;;;;;;;3.70;1.20;;;;;;;26.99;41.81;96449.25;5077671;27;20397;-96
2022/08/02 12:42:09;;;;;;;2.50;1.00;;;;;;;27.19;42.75;96450.13;5031749;28;20057;-94
2022/08/02 12:44:38;;;;;;;1.40;1.02;;;;;;;27.18;41.38;96451.34;5044840;28;20056;-95
2022/08/02 12:47:08;;;;;;;2.97;1.05;;;;;;;26.95;41.27;96454.13;5050207;28;20049;-95
2022/08/02 12:49:35;;;;;;;1.90;1.45;;;;;;;26.75;43.63;96454.00;5050616;28;20048;-93
2022/08/02 12:52:02;;;;;;;2.28;0.90;;;;;;;26.93;42.06;96445.34;5050417;28;20514;-93
2022/08/02 12:54:32;;;;;;;1.55;0.98;;;;;;;27.09;41.10;96445.50;5048936;28;20049;-96
2022/08/02 12:57:10;;;;;;;1.13;0.70;;;;;;;27.03;40.69;96444.38;5050422;28;20049;-95
2022/08/02 12:59:40;;;;;;;2.97;1.27;;;;;;;27.19;43.28;96438.97;5050172;28;20090;-96
2022/08/02 13:02:09;;;;;;;2.95;1.20;;;;;;;27.21;41.30;96430.94;5049932;28;20049;-95
2022/08/02 13:04:37;;;;;;;1.20;0.80;;;;;;;27.24;42.21;96438.47;5049681;28;20049;-94
2022/08/02 13:07:04;;;;;;;3.22;1.17;;;;;;;27.16;40.46;96433.44;5048764;28;20064;-96
2022/08/02 13:09:37;;;;;;;1.60;0.90;;;;;;;27.11;39.36;96431.13;5050394;28;20132;-96
2022/08/02 13:12:07;;;;;;;2.25;0.93;;;;;;;27.18;40.18;96431.78;5049514;28;20132;-96
2022/08/02 13:14:34;;;;;;;3.95;0.85;;;;;;;26.92;40.31;96429.81;5048838;28;20061;-95
2022/08/02 13:17:01;;;;;;;1.25;0.95;;;;;;;26.99;41.30;96433.28;5048640;28;20045;-96
2022/08/02 13:19:28;;;;;;;3.25;0.93;;;;;;;27.06;40.74;96424.78;5049966;28;20049;-95
2022/08/02 13:21:55;;;;;;;1.35;0.75;;;;;;;26.97;40.85;96432.91;5056179;28;20048;-95
2022/08/02 13:24:25;;;;;;;1.70;0.70;;;;;;;26.84;38.63;96426.34;5069451;28;20052;-96
2022/08/02 13:26:52;;;;;;;1.70;0.95;;;;;;;26.93;41.50;96420.19;5069776;28;20072;-96
2022/08/02 13:29:20;;;;;;;1.67;1.00;;;;;;;26.79;40.62;96416.44;5068951;28;20123;-95
2022/08/02 13:31:46;;;;;;;0.68;0.52;;;;;;;26.85;38.72;96407.56;5069914;28;20048;-96
2022/08/02 13:34:15;;;;;;;3.22;1.10;;;;;;;27.02;38.64;96412.06;5069530;28;20053;-93
2022/08/02 13:36:44;;;;;;;1.23;0.93;;;;;;;27.15;38.73;96410.28;5070877;28;20048;-96
2022/08/02 13:39:11;;;;;;;2.40;0.82;;;;;;;27.19;38.91;96408.22;5071394;28;20040;-96
2022/08/02 13:41:38;;;;;;;1.30;1.00;;;;;;;27.31;38.67;96402.03;5079612;28;20032;-96
2022/08/02 13:44:05;;;;;;;3.80;1.00;;;;;;;27.23;39.19;96399.75;5088481;28;20045;-95
2022/08/02 13:46:35;;;;;;;1.52;0.90;;;;;;;27.37;40.05;96404.31;5081576;28;20041;-95
2022/08/02 13:49:01;;;;;;;3.25;0.73;;;;;;;27.41;39.34;96397.47;5066122;28;20049;-95
2022/08/02 13:51:28;;;;;;;1.42;1.00;;;;;;;27.29;38.30;96398.06;5051717;28;20053;-96
2022/08/02 13:53:55;;;;;;;1.13;0.85;;;;;;;27.33;38.64;96400.81;5036335;28;20117;-95
2022/08/02 13:56:22;;;;;;;2.95;1.05;;;;;;;27.17;39.79;96395.88;5037823;28;20065;-96
2022/08/02 13:58:48;;;;;;;2.05;1.02;;;;;;;27.37;40.58;96393.13;5042928;28;20033;-96
2022/08/02 14:01:15;;;;;;;3.17;0.93;;;;;;;27.43;40.29;96391.44;5055540;28;20033;-95
2022/08/02 14:03:43;;;;;;;1.52;0.88;;;;;;;27.54;39.63;96387.19;5050990;28;20056;-96
2022/08/02 14:06:11;;;;;;;1.30;0.90;;;;;;;27.47;39.15;96384.56;5034137;28;20053;-96
2022/08/02 14:08:38;;;;;;;1.27;0.68;;;;;;;27.40;40.26;96381.88;5035662;28;20057;-96
2022/08/02 14:11:05;;;;;;;7.18;1.15;;;;;;;27.45;40.97;96383.38;5034773;28;20065;-96
2022/08/02 14:13:32;;;;;;;1.30;0.80;;;;;;;27.44;38.10;96381.81;5035116;28;20046;-96
2022/08/02 14:15:59;;;;;;;2.22;0.80;;;;;;;27.40;39.59;96369.91;5035312;28;20045;-96
2022/08/02 14:18:26;;;;;;;3.30;1.25;;;;;;;27.51;38.44;96373.28;5034406;28;20511;-94
2022/08/02 14:20:54;;;;;;;1.05;0.95;;;;;;;27.56;39.21;96372.78;5034926;28;20052;-96
2022/08/02 14:23:21;;;;;;;1.30;0.60;;;;;;;27.49;37.21;96378.53;5065701;28;20050;-96